Time;durP1;ratioP1;P1;durP2;ratioP2;P2;SDS_P1;SDS_P2;PMS_P1;PMS_P2;Temp;Humidity;BMP_temperature;BMP_pressure;BME280_temperature;BME280_humidity;BME280_pressure;Samples;Min_cycle;Max_cycle;Signal;HPM_P1;HPM_P2
2021/06/21 00:00:35;;;;;;;;;;;15.90;99.90;;;;;;4960877;28;20407;-80
2021/06/21 00:03:02;;;;;;;;;;;15.80;99.90;;;;;;4962021;28;19925;-81
2021/06/21 00:05:29;;;;;;;;;;;15.90;99.90;;;;;;4960333;28;19925;-80
2021/06/21 00:07:55;;;;;;;;;;;15.90;99.90;;;;;;4963706;28;19932;-80
2021/06/21 00:10:22;;;;;;;;;;;15.90;99.90;;;;;;4958060;28;19926;-80
2021/06/21 00:12:49;;;;;;;;;;;15.90;99.90;;;;;;4962455;28;19927;-80
2021/06/21 00:15:18;;;;;;;;;;;15.90;99.90;;;;;;4957934;28;20385;-80
2021/06/21 00:17:45;;;;;;;;;;;15.90;99.90;;;;;;4959149;28;19965;-80
2021/06/21 00:20:12;;;;;;;;;;;15.90;99.90;;;;;;4959947;28;19923;-80
2021/06/21 00:22:39;;;;;;;;;;;15.90;99.90;;;;;;4958299;28;19922;-80
2021/06/21 00:25:06;;;;;;;;;;;15.90;99.90;;;;;;4960317;28;21412;-80
2021/06/21 00:27:34;;;;;;;;;;;15.90;99.90;;;;;;4956668;28;19933;-80
2021/06/21 00:30:02;;;;;;;;;;;15.90;99.90;;;;;;4959592;28;19995;-80
2021/06/21 00:32:29;;;;;;;;;;;15.90;99.90;;;;;;4962200;28;19933;-80
2021/06/21 00:34:56;;;;;;;;;;;15.90;99.90;;;;;;4958368;28;19969;-80
2021/06/21 00:37:23;;;;;;;;;;;15.90;99.90;;;;;;4957984;28;19934;-80
2021/06/21 00:39:49;;;;;;;;;;;15.90;99.90;;;;;;4965167;28;19926;-80
2021/06/21 00:42:16;;;;;;;;;;;15.90;99.90;;;;;;4958055;28;19930;-81
2021/06/21 00:44:43;;;;;;;;;;;15.90;99.90;;;;;;4957766;28;19922;-81
2021/06/21 00:47:13;;;;;;;;;;;15.90;99.90;;;;;;4960809;28;19929;-81
2021/06/21 00:49:40;;;;;;;;;;;15.80;99.90;;;;;;4959569;28;20411;-80
2021/06/21 00:52:11;;;;;;;;;;;15.80;99.90;;;;;;4961743;28;19926;-81
2021/06/21 00:54:38;;;;;;;;;;;15.80;99.90;;;;;;4961284;28;19926;-81
2021/06/21 00:57:05;;;;;;;;;;;15.80;99.90;;;;;;4959713;28;19930;-80
2021/06/21 00:59:31;;;;;;;;;;;15.80;99.90;;;;;;4960475;28;19926;-81
2021/06/21 01:01:58;;;;;;;;;;;15.80;99.90;;;;;;4960936;28;19926;-81
2021/06/21 01:04:25;;;;;;;;;;;15.80;99.90;;;;;;4958354;28;19924;-80
2021/06/21 01:06:51;;;;;;;;;;;15.80;99.90;;;;;;4958473;28;20376;-81
2021/06/21 01:09:18;;;;;;;;;;;15.80;99.90;;;;;;4963796;28;19926;-80
2021/06/21 01:11:45;;;;;;;;;;;15.80;99.90;;;;;;4960679;28;20275;-81
2021/06/21 01:14:30;;;;;;;;;;;15.80;99.90;;;;;;4958478;28;19957;-81
2021/06/21 01:17:02;;;;;;;;;;;15.80;99.90;;;;;;4961025;28;19958;-80
2021/06/21 01:19:37;;;;;;;;;;;15.80;99.90;;;;;;4977302;28;19925;-81
2021/06/21 01:22:29;;;;;;;;;;;15.80;99.90;;;;;;4966860;28;19926;-81
2021/06/21 01:25:22;;;;;;;;;;;15.80;99.90;;;;;;4960788;28;19972;-80
2021/06/21 01:27:53;;;;;;;;;;;15.80;99.90;;;;;;4957221;28;19985;-80
2021/06/21 01:30:21;;;;;;;;;;;15.80;99.90;;;;;;4965759;28;19922;-80
2021/06/21 01:32:50;;;;;;;;;;;15.80;99.90;;;;;;4957751;28;19927;-80
2021/06/21 01:35:19;;;;;;;;;;;15.80;99.90;;;;;;4961701;28;19930;-79
2021/06/21 01:37:48;;;;;;;;;;;15.80;99.90;;;;;;4960062;28;19941;-81
2021/06/21 01:40:17;;;;;;;;;;;15.80;99.90;;;;;;4960228;28;19933;-81
2021/06/21 01:42:47;;;;;;;;;;;15.70;99.90;;;;;;4960532;28;19926;-81
2021/06/21 01:45:16;;;;;;;;;;;15.70;99.90;;;;;;4976735;28;19973;-80
2021/06/21 01:47:51;;;;;;;;;;;15.70;99.90;;;;;;4958911;28;20021;-80
2021/06/21 01:50:19;;;;;;;;;;;15.60;99.90;;;;;;4959971;28;19930;-80
2021/06/21 01:52:50;;;;;;;;;;;15.60;99.90;;;;;;4956337;28;19941;-80
2021/06/21 01:55:19;;;;;;;;;;;15.50;99.90;;;;;;4955955;28;19937;-79
2021/06/21 01:57:46;;;;;;;;;;;15.40;99.90;;;;;;4956628;28;20329;-81
2021/06/21 02:00:13;;;;;;;;;;;15.40;99.90;;;;;;4958945;28;19926;-80
2021/06/21 02:02:41;;;;;;;;;;;15.30;99.90;;;;;;4959239;28;19933;-79
2021/06/21 02:05:08;;;;;;;;;;;15.20;99.90;;;;;;4955998;28;20011;-77
2021/06/21 02:07:36;;;;;;;;;;;15.20;99.90;;;;;;4969722;28;19943;-80
2021/06/21 02:10:03;;;;;;;;;;;15.10;99.90;;;;;;4957123;28;19926;-79
2021/06/21 02:12:31;;;;;;;;;;;15.00;99.90;;;;;;4954239;28;19936;-80
2021/06/21 02:14:57;;;;;;;;;;;15.00;99.90;;;;;;4958749;28;19988;-80
2021/06/21 02:17:26;;;;;;;;;;;14.90;99.90;;;;;;4959032;28;19948;-80
2021/06/21 02:19:54;;;;;;;;;;;14.90;99.90;;;;;;4973423;28;19937;-79
2021/06/21 02:22:22;;;;;;;;;;;14.80;99.90;;;;;;4954296;28;19964;-79
2021/06/21 02:24:49;;;;;;;;;;;14.70;99.90;;;;;;4962155;28;19926;-80
2021/06/21 02:27:16;;;;;;;;;;;14.70;99.90;;;;;;4962058;28;20021;-79
2021/06/21 02:29:43;;;;;;;;;;;14.60;99.90;;;;;;4977103;28;19926;-80
2021/06/21 02:32:10;;;;;;;;;;;14.60;99.90;;;;;;4973875;28;20370;-79
2021/06/21 02:34:37;;;;;;;;;;;14.60;99.90;;;;;;4960126;28;20033;-80
2021/06/21 02:37:03;;;;;;;;;;;14.60;99.90;;;;;;4957519;28;20577;-79
2021/06/21 02:39:30;;;;;;;;;;;14.50;99.90;;;;;;4962052;28;20914;-80
2021/06/21 02:41:57;;;;;;;;;;;14.50;99.90;;;;;;4957535;28;19926;-80
2021/06/21 02:44:24;;;;;;;;;;;14.50;99.90;;;;;;4958444;28;19926;-80
2021/06/21 02:46:50;;;;;;;;;;;14.40;99.90;;;;;;4960398;28;20374;-80
2021/06/21 02:49:17;;;;;;;;;;;14.40;99.90;;;;;;4967073;28;22367;-80
2021/06/21 02:51:47;;;;;;;;;;;14.40;99.90;;;;;;4957790;28;19926;-80
2021/06/21 02:54:22;;;;;;;;;;;14.40;99.90;;;;;;4959812;28;19932;-80
2021/06/21 02:57:09;;;;;;;;;;;14.30;99.90;;;;;;4958805;28;20316;-80
2021/06/21 02:59:39;;;;;;;;;;;14.30;99.90;;;;;;4959223;28;20282;-80
2021/06/21 03:02:06;;;;;;;;;;;14.30;99.90;;;;;;4957781;28;19929;-80
2021/06/21 03:04:35;;;;;;;;;;;14.30;99.90;;;;;;4959251;28;19926;-80
2021/06/21 03:07:02;;;;;;;;;;;14.30;99.90;;;;;;4957177;28;19926;-79
2021/06/21 03:09:29;;;;;;;;;;;14.30;99.90;;;;;;4958701;28;19933;-80
2021/06/21 03:11:58;;;;;;;;;;;14.30;99.90;;;;;;4949309;28;19930;-79
2021/06/21 03:14:26;;;;;;;;;;;14.30;99.90;;;;;;4971826;28;19925;-79
2021/06/21 03:16:53;;;;;;;;;;;14.30;99.90;;;;;;4958286;28;19926;-79
2021/06/21 03:19:20;;;;;;;;;;;14.30;99.90;;;;;;4959097;28;20382;-80
2021/06/21 03:21:47;;;;;;;;;;;14.30;99.90;;;;;;4959112;28;19933;-79
2021/06/21 03:24:15;;;;;;;;;;;14.30;99.90;;;;;;4961752;28;20296;-80
2021/06/21 03:26:42;;;;;;;;;;;14.30;99.90;;;;;;4957972;28;19926;-80
2021/06/21 03:29:12;;;;;;;;;;;14.20;99.90;;;;;;4956283;28;20367;-80
2021/06/21 03:31:40;;;;;;;;;;;14.20;99.90;;;;;;4959133;28;20255;-80
2021/06/21 03:34:06;;;;;;;;;;;14.20;99.90;;;;;;4965388;28;19996;-80
2021/06/21 03:36:33;;;;;;;;;;;14.20;99.90;;;;;;4959058;28;20017;-80
2021/06/21 03:39:00;;;;;;;;;;;14.20;99.90;;;;;;4959429;28;19948;-80
2021/06/21 03:41:26;;;;;;;;;;;14.10;99.90;;;;;;4958417;28;19933;-80
2021/06/21 03:43:53;;;;;;;;;;;14.10;99.90;;;;;;4955758;28;19929;-79
2021/06/21 03:46:19;;;;;;;;;;;14.10;99.90;;;;;;4959097;28;19933;-79
2021/06/21 03:48:46;;;;;;;;;;;14.10;99.90;;;;;;4960108;28;21051;-80
2021/06/21 03:51:13;;;;;;;;;;;14.00;99.90;;;;;;4958092;28;19933;-79
2021/06/21 03:53:40;;;;;;;;;;;14.00;99.90;;;;;;4957281;28;19931;-80
2021/06/21 03:56:06;;;;;;;;;;;14.00;99.90;;;;;;4957505;28;19925;-79
2021/06/21 03:58:33;;;;;;;;;;;14.00;99.90;;;;;;4959832;28;19922;-80
2021/06/21 04:00:59;;;;;;;;;;;14.00;99.90;;;;;;4959095;28;19926;-79
2021/06/21 04:03:26;;;;;;;;;;;14.00;99.90;;;;;;4957032;28;19926;-79
2021/06/21 04:05:53;;;;;;;;;;;14.00;99.90;;;;;;4959027;28;19933;-79
2021/06/21 04:08:24;;;;;;;;;;;14.00;99.90;;;;;;4957158;28;19989;-79
2021/06/21 04:10:51;;;;;;;;;;;14.00;99.90;;;;;;4957061;28;19926;-79
2021/06/21 04:13:20;;;;;;;;;;;14.00;99.90;;;;;;4956345;28;19933;-79
2021/06/21 04:15:46;;;;;;;;;;;13.90;99.90;;;;;;4958221;28;19926;-79
2021/06/21 04:18:14;;;;;;;;;;;13.90;99.90;;;;;;4955358;28;19925;-79
2021/06/21 04:20:44;;;;;;;;;;;13.90;99.90;;;;;;4955768;28;20028;-79
2021/06/21 04:23:12;;;;;;;;;;;13.90;99.90;;;;;;4972125;28;19984;-79
2021/06/21 04:25:39;;;;;;;;;;;13.90;99.90;;;;;;4973410;28;19927;-79
2021/06/21 04:28:06;;;;;;;;;;;13.90;99.90;;;;;;4969147;28;19932;-79
2021/06/21 04:30:33;;;;;;;;;;;13.90;99.90;;;;;;4979415;28;19926;-79
2021/06/21 04:33:00;;;;;;;;;;;13.90;99.90;;;;;;4962320;28;20305;-79
2021/06/21 04:35:27;;;;;;;;;;;13.90;99.90;;;;;;4964665;28;19930;-79
2021/06/21 04:37:54;;;;;;;;;;;13.90;99.90;;;;;;4966338;28;19933;-79
2021/06/21 04:40:24;;;;;;;;;;;13.90;99.90;;;;;;4967907;28;20191;-79
2021/06/21 04:42:51;;;;;;;;;;;13.90;99.90;;;;;;4965525;28;20353;-79
2021/06/21 04:45:18;;;;;;;;;;;13.90;99.90;;;;;;4960812;28;19945;-80
2021/06/21 04:47:47;;;;;;;;;;;13.90;99.90;;;;;;4963127;28;19933;-79
2021/06/21 04:50:14;;;;;;;;;;;13.90;99.90;;;;;;4965239;28;20372;-79
2021/06/21 04:52:42;;;;;;;;;;;13.90;99.90;;;;;;4962285;28;19933;-79
2021/06/21 04:55:10;;;;;;;;;;;13.90;99.90;;;;;;4966107;28;20373;-80
2021/06/21 04:57:37;;;;;;;;;;;14.00;99.90;;;;;;4964782;28;19965;-79
2021/06/21 05:00:05;;;;;;;;;;;14.00;99.90;;;;;;4968470;28;19926;-79
2021/06/21 05:02:32;;;;;;;;;;;13.90;99.90;;;;;;4965878;28;19932;-79
2021/06/21 05:04:59;;;;;;;;;;;13.90;99.90;;;;;;4966492;28;19923;-79
2021/06/21 05:07:25;;;;;;;;;;;13.90;99.90;;;;;;4966898;28;20037;-80
2021/06/21 05:09:52;;;;;;;;;;;13.90;99.90;;;;;;4963093;28;19926;-79
2021/06/21 05:12:19;;;;;;;;;;;13.90;99.90;;;;;;4963154;28;20011;-79
2021/06/21 05:14:45;;;;;;;;;;;13.80;99.90;;;;;;4966308;28;19933;-80
2021/06/21 05:17:12;;;;;;;;;;;13.90;99.90;;;;;;4966369;28;19933;-80
2021/06/21 05:19:39;;;;;;;;;;;13.80;99.90;;;;;;4968049;28;19961;-80
2021/06/21 05:22:06;;;;;;;;;;;13.80;99.90;;;;;;4965557;28;19922;-80
2021/06/21 05:24:33;;;;;;;;;;;13.80;99.90;;;;;;4963684;28;20285;-79
2021/06/21 05:27:00;;;;;;;;;;;13.70;99.90;;;;;;4965693;28;19928;-79
2021/06/21 05:29:26;;;;;;;;;;;13.70;99.90;;;;;;4966153;28;20127;-79
2021/06/21 05:31:53;;;;;;;;;;;13.70;99.90;;;;;;4965658;28;19932;-79
2021/06/21 05:34:20;;;;;;;;;;;13.70;99.90;;;;;;4971325;28;19939;-80
2021/06/21 05:36:47;;;;;;;;;;;13.70;99.90;;;;;;4964804;28;19936;-80
2021/06/21 05:39:13;;;;;;;;;;;13.70;99.90;;;;;;4971177;28;19993;-80
2021/06/21 05:41:40;;;;;;;;;;;13.60;99.90;;;;;;4965510;28;19933;-79
2021/06/21 05:44:06;;;;;;;;;;;13.60;99.90;;;;;;4966831;28;22148;-79
2021/06/21 05:46:33;;;;;;;;;;;13.60;99.90;;;;;;4964225;28;19958;-80
2021/06/21 05:49:00;;;;;;;;;;;13.60;99.90;;;;;;4949583;28;22474;-80
2021/06/21 05:51:26;;;;;;;;;;;13.70;99.90;;;;;;4975138;28;19926;-80
2021/06/21 05:53:53;;;;;;;;;;;13.70;99.90;;;;;;4964906;28;19926;-79
2021/06/21 05:56:20;;;;;;;;;;;13.60;99.90;;;;;;4971062;28;21008;-80
2021/06/21 05:58:46;;;;;;;;;;;13.60;99.90;;;;;;4972052;28;19997;-79
2021/06/21 06:01:13;;;;;;;;;;;13.60;99.90;;;;;;4970561;28;19922;-80
2021/06/21 06:03:40;;;;;;;;;;;13.60;99.90;;;;;;4969168;28;19948;-79
2021/06/21 06:06:07;;;;;;;;;;;13.60;99.90;;;;;;4975207;28;20390;-79
2021/06/21 06:08:34;;;;;;;;;;;13.60;99.90;;;;;;4971633;28;19997;-79
2021/06/21 06:11:01;;;;;;;;;;;13.60;99.90;;;;;;4974868;28;19933;-80
2021/06/21 06:13:27;;;;;;;;;;;13.60;99.90;;;;;;4970314;28;19926;-80
2021/06/21 06:15:54;;;;;;;;;;;13.60;99.90;;;;;;4971194;28;19932;-79
2021/06/21 06:18:21;;;;;;;;;;;13.60;99.90;;;;;;4971120;28;19930;-79
2021/06/21 06:20:48;;;;;;;;;;;13.60;99.90;;;;;;4971689;28;21014;-79
2021/06/21 06:23:34;;;;;;;;;;;13.70;99.90;;;;;;4967291;28;19950;-80
2021/06/21 06:26:00;;;;;;;;;;;13.70;99.90;;;;;;4971971;28;19989;-79
2021/06/21 06:28:27;;;;;;;;;;;13.70;99.90;;;;;;4971123;28;19926;-80
2021/06/21 06:30:54;;;;;;;;;;;13.70;99.90;;;;;;4971216;28;20297;-80
2021/06/21 06:33:21;;;;;;;;;;;13.80;99.90;;;;;;4968088;28;19932;-80
2021/06/21 06:35:47;;;;;;;;;;;13.80;99.90;;;;;;4972215;28;19990;-79
2021/06/21 06:38:14;;;;;;;;;;;13.80;99.90;;;;;;4971165;28;19932;-78
2021/06/21 06:40:41;;;;;;;;;;;13.80;99.90;;;;;;4969133;28;19926;-80
2021/06/21 06:43:07;;;;;;;;;;;13.80;99.90;;;;;;4978405;28;19957;-78
2021/06/21 06:45:34;;;;;;;;;;;13.80;99.90;;;;;;4972632;28;19998;-80
2021/06/21 06:48:02;;;;;;;;;;;13.80;99.90;;;;;;4964469;28;20033;-79
2021/06/21 06:50:28;;;;;;;;;;;13.80;99.90;;;;;;4968274;28;20395;-79
2021/06/21 06:53:01;;;;;;;;;;;13.80;99.90;;;;;;4971476;28;20029;-80
2021/06/21 06:58:13;;;;;;;;;;;13.90;99.90;;;;;;4970871;28;19926;-79
2021/06/21 07:00:39;;;;;;;;;;;13.80;99.90;;;;;;4966863;28;19932;-79
2021/06/21 07:03:07;;;;;;;;;;;13.80;99.90;;;;;;4964489;28;19937;-78
2021/06/21 07:05:33;;;;;;;;;;;13.90;99.90;;;;;;4966632;28;20229;-80
2021/06/21 07:08:00;;;;;;;;;;;13.90;99.90;;;;;;4956956;28;19930;-79
2021/06/21 07:10:27;;;;;;;;;;;13.90;99.90;;;;;;4965882;28;19926;-79
2021/06/21 07:12:56;;;;;;;;;;;13.90;99.90;;;;;;4958363;28;20359;-79
2021/06/21 07:15:22;;;;;;;;;;;14.00;99.90;;;;;;4965861;28;20393;-79
2021/06/21 07:17:50;;;;;;;;;;;13.90;99.90;;;;;;4964944;28;20405;-79
2021/06/21 07:20:16;;;;;;;;;;;14.00;99.90;;;;;;4965254;28;19965;-80
2021/06/21 07:22:43;;;;;;;;;;;14.00;99.90;;;;;;4967400;28;19926;-78
2021/06/21 07:25:10;;;;;;;;;;;14.00;99.90;;;;;;4963801;28;19953;-79
2021/06/21 07:27:37;;;;;;;;;;;14.00;99.90;;;;;;4968164;28;20416;-78
2021/06/21 07:30:04;;;;;;;;;;;14.00;99.90;;;;;;4965980;28;19931;-79
2021/06/21 07:32:31;;;;;;;;;;;14.00;99.90;;;;;;4958761;28;19926;-80
2021/06/21 07:34:57;;;;;;;;;;;14.10;99.90;;;;;;4967632;28;19926;-79
2021/06/21 07:37:24;;;;;;;;;;;14.10;99.90;;;;;;4968909;28;19961;-79
2021/06/21 07:39:50;;;;;;;;;;;14.20;99.90;;;;;;4967937;28;19933;-79
2021/06/21 07:42:17;;;;;;;;;;;14.20;99.90;;;;;;4966834;28;19948;-79
2021/06/21 07:44:44;;;;;;;;;;;14.20;99.90;;;;;;4963113;28;19937;-80
2021/06/21 07:47:10;;;;;;;;;;;14.30;99.90;;;;;;4963875;28;20012;-79
2021/06/21 07:49:37;;;;;;;;;;;14.30;99.90;;;;;;4963859;28;19950;-79
2021/06/21 07:52:04;;;;;;;;;;;14.30;99.90;;;;;;4964040;28;19934;-79
2021/06/21 07:54:31;;;;;;;;;;;14.40;99.90;;;;;;4966835;28;19926;-79
2021/06/21 07:56:57;;;;;;;;;;;14.40;99.90;;;;;;4973762;28;19926;-79
2021/06/21 07:59:24;;;;;;;;;;;14.50;99.90;;;;;;4965914;28;19950;-79
2021/06/21 08:01:51;;;;;;;;;;;14.50;99.90;;;;;;4967788;28;19930;-79
2021/06/21 08:04:19;;;;;;;;;;;14.50;99.90;;;;;;4962092;28;19981;-79
2021/06/21 08:06:46;;;;;;;;;;;14.60;99.90;;;;;;4967684;28;19922;-78
2021/06/21 08:09:13;;;;;;;;;;;14.60;99.90;;;;;;4967800;28;19926;-79
2021/06/21 08:11:39;;;;;;;;;;;14.60;99.90;;;;;;4967579;28;19927;-78
2021/06/21 08:14:06;;;;;;;;;;;14.60;99.90;;;;;;4969890;28;19932;-79
2021/06/21 08:16:33;;;;;;;;;;;14.60;99.90;;;;;;4965609;28;19933;-79
2021/06/21 08:19:00;;;;;;;;;;;14.60;99.90;;;;;;4968933;28;20321;-79
2021/06/21 08:21:26;;;;;;;;;;;14.70;99.90;;;;;;4965172;28;19982;-79
2021/06/21 08:23:54;;;;;;;;;;;14.70;99.90;;;;;;4969774;28;19961;-78
2021/06/21 08:26:21;;;;;;;;;;;14.80;99.90;;;;;;4964917;28;20412;-79
2021/06/21 08:28:48;;;;;;;;;;;14.90;99.90;;;;;;4962353;28;19936;-79
2021/06/21 08:31:15;;;;;;;;;;;15.00;99.90;;;;;;4959930;28;19968;-78
2021/06/21 08:33:41;;;;;;;;;;;15.00;99.90;;;;;;4966379;28;19926;-79
2021/06/21 08:36:08;;;;;;;;;;;15.10;99.90;;;;;;4965026;28;20491;-79
2021/06/21 08:38:35;;;;;;;;;;;15.10;99.90;;;;;;4964528;28;20009;-79
2021/06/21 08:41:03;;;;;;;;;;;15.10;99.90;;;;;;4965902;28;19926;-78
2021/06/21 08:43:32;;;;;;;;;;;15.10;99.90;;;;;;4962725;28;19926;-78
2021/06/21 08:45:58;;;;;;;;;;;15.10;99.90;;;;;;4963793;28;19926;-79
2021/06/21 08:48:27;;;;;;;;;;;15.10;99.90;;;;;;4962767;28;20287;-79
2021/06/21 08:50:54;;;;;;;;;;;15.00;99.90;;;;;;4968630;28;19985;-79
2021/06/21 08:53:21;;;;;;;;;;;15.10;99.90;;;;;;4959587;28;19936;-79
2021/06/21 08:55:50;;;;;;;;;;;15.10;99.90;;;;;;4964257;28;19933;-79
2021/06/21 08:58:17;;;;;;;;;;;15.20;99.90;;;;;;4961877;28;19957;-79
2021/06/21 09:00:45;;;;;;;;;;;15.20;99.90;;;;;;4962325;28;20025;-79
2021/06/21 09:03:12;;;;;;;;;;;15.20;99.90;;;;;;4964246;28;19926;-79
2021/06/21 09:05:40;;;;;;;;;;;15.20;99.90;;;;;;4962228;28;19953;-79
2021/06/21 09:08:07;;;;;;;;;;;15.10;99.90;;;;;;4959853;28;19932;-79
2021/06/21 09:10:35;;;;;;;;;;;15.10;99.90;;;;;;4962820;28;19930;-79
2021/06/21 09:13:04;;;;;;;;;;;15.00;99.90;;;;;;4961078;28;19941;-80
2021/06/21 09:15:32;;;;;;;;;;;14.90;99.90;;;;;;4963434;28;20024;-80
2021/06/21 09:18:00;;;;;;;;;;;14.90;99.90;;;;;;4961256;28;20372;-79
2021/06/21 09:20:27;;;;;;;;;;;14.90;99.90;;;;;;4961459;28;19926;-80
2021/06/21 09:23:00;;;;;;;;;;;14.80;99.90;;;;;;4961552;28;19981;-79
2021/06/21 09:25:28;;;;;;;;;;;14.70;99.90;;;;;;4959332;28;19932;-79
2021/06/21 09:27:56;;;;;;;;;;;14.70;99.90;;;;;;4960855;28;19936;-80
2021/06/21 09:30:23;;;;;;;;;;;14.70;99.90;;;;;;4961447;28;20247;-79
2021/06/21 09:32:57;;;;;;;;;;;14.60;99.90;;;;;;4961274;28;20457;-79
2021/06/21 09:35:29;;;;;;;;;;;14.70;99.90;;;;;;4962191;28;19933;-80
2021/06/21 09:37:57;;;;;;;;;;;14.60;99.90;;;;;;4961431;28;20309;-79
2021/06/21 09:40:29;;;;;;;;;;;14.60;99.90;;;;;;4958283;28;19926;-79
2021/06/21 09:42:56;;;;;;;;;;;14.60;99.90;;;;;;4976358;28;19927;-80
2021/06/21 09:45:23;;;;;;;;;;;14.60;99.90;;;;;;4962635;28;19927;-77
2021/06/21 09:47:49;;;;;;;;;;;14.50;99.90;;;;;;4967748;28;19925;-79
2021/06/21 09:50:20;;;;;;;;;;;14.50;99.90;;;;;;4959111;28;19926;-80
2021/06/21 09:52:47;;;;;;;;;;;14.50;99.90;;;;;;4958885;28;19929;-78
2021/06/21 09:55:19;;;;;;;;;;;14.50;99.90;;;;;;4949787;28;19925;-78
2021/06/21 09:57:47;;;;;;;;;;;14.60;99.90;;;;;;4961198;28;19973;-78
2021/06/21 10:00:15;;;;;;;;;;;14.70;99.90;;;;;;4958921;28;20052;-78
2021/06/21 10:02:42;;;;;;;;;;;14.70;99.90;;;;;;4961464;28;19933;-78
2021/06/21 10:05:19;;;;;;;;;;;14.90;99.90;;;;;;4964033;28;20956;-78
2021/06/21 10:07:46;;;;;;;;;;;14.90;99.90;;;;;;4960516;28;20289;-78
2021/06/21 10:10:18;;;;;;;;;;;14.90;99.90;;;;;;4966702;28;20066;-79
2021/06/21 10:12:45;;;;;;;;;;;15.00;99.90;;;;;;4959500;28;19926;-78
2021/06/21 10:15:13;;;;;;;;;;;15.10;99.90;;;;;;4958852;28;19926;-79
2021/06/21 10:17:40;;;;;;;;;;;15.20;99.90;;;;;;4976421;28;19933;-79
2021/06/21 10:20:08;;;;;;;;;;;15.30;99.90;;;;;;4968811;28;19934;-80
2021/06/21 10:22:35;;;;;;;;;;;15.30;99.90;;;;;;4966814;28;20003;-79
2021/06/21 10:25:03;;;;;;;;;;;15.40;99.90;;;;;;4961734;28;19931;-79
2021/06/21 10:27:30;;;;;;;;;;;15.40;99.90;;;;;;4961255;28;20286;-79
2021/06/21 10:29:57;;;;;;;;;;;15.30;99.90;;;;;;4959485;28;19922;-79
2021/06/21 10:32:26;;;;;;;;;;;15.20;99.90;;;;;;4966649;28;19930;-79
2021/06/21 10:34:53;;;;;;;;;;;15.20;99.90;;;;;;4963000;28;19936;-79
2021/06/21 10:37:21;;;;;;;;;;;15.20;99.90;;;;;;4968234;28;19930;-80
2021/06/21 10:39:54;;;;;;;;;;;15.20;99.90;;;;;;4965754;28;20009;-80
2021/06/21 10:42:24;;;;;;;;;;;15.30;99.90;;;;;;4966206;28;19930;-79
2021/06/21 10:44:56;;;;;;;;;;;15.20;99.90;;;;;;4973280;28;19930;-80
2021/06/21 10:47:39;;;;;;;;;;;15.20;99.90;;;;;;4967587;28;19933;-80
2021/06/21 10:50:05;;;;;;;;;;;15.30;99.90;;;;;;4962900;28;19997;-80
2021/06/21 10:52:52;;;;;;;;;;;15.30;99.90;;;;;;4948722;28;20045;-79
2021/06/21 10:55:26;;;;;;;;;;;15.40;99.90;;;;;;4960874;28;20452;-79
2021/06/21 10:58:14;;;;;;;;;;;15.50;99.90;;;;;;4965185;28;19926;-79
2021/06/21 11:00:44;;;;;;;;;;;15.60;99.90;;;;;;4969147;28;19933;-79
2021/06/21 11:03:23;;;;;;;;;;;15.80;99.90;;;;;;4966217;28;19930;-79
2021/06/21 11:05:53;;;;;;;;;;;16.00;99.90;;;;;;4965592;28;19953;-78
2021/06/21 11:08:24;;;;;;;;;;;16.20;99.90;;;;;;4968499;28;19926;-79
2021/06/21 11:10:52;;;;;;;;;;;16.30;99.90;;;;;;4972720;28;20038;-78
2021/06/21 11:13:34;;;;;;;;;;;16.40;99.90;;;;;;4970637;28;19954;-79
2021/06/21 11:16:13;;;;;;;;;;;16.50;99.90;;;;;;4954918;28;19929;-79
2021/06/21 11:18:40;;;;;;;;;;;16.60;99.90;;;;;;4967583;28;20336;-79
2021/06/21 11:21:11;;;;;;;;;;;16.60;99.90;;;;;;4965311;28;19930;-78
2021/06/21 11:23:41;;;;;;;;;;;16.60;99.90;;;;;;4964715;28;19973;-78
2021/06/21 11:26:08;;;;;;;;;;;16.60;99.90;;;;;;4963770;28;19973;-79
2021/06/21 11:28:41;;;;;;;;;;;16.50;99.90;;;;;;4966054;28;19936;-78
2021/06/21 11:31:29;;;;;;;;;;;16.40;99.90;;;;;;4967182;28;19934;-79
2021/06/21 11:33:57;;;;;;;;;;;16.40;99.90;;;;;;4968359;28;20424;-78
2021/06/21 11:36:36;;;;;;;;;;;16.40;99.90;;;;;;4963236;28;19926;-78
2021/06/21 11:39:23;;;;;;;;;;;16.40;99.90;;;;;;4967680;28;19976;-79
2021/06/21 11:42:00;;;;;;;;;;;16.30;99.90;;;;;;4971168;28;19926;-78
2021/06/21 11:44:36;;;;;;;;;;;16.40;99.90;;;;;;4965128;28;20378;-78
2021/06/21 11:47:21;;;;;;;;;;;16.40;99.90;;;;;;4964444;28;20009;-78
2021/06/21 11:49:52;;;;;;;;;;;16.50;99.90;;;;;;4966899;28;20392;-78
2021/06/21 11:52:20;;;;;;;;;;;16.40;99.90;;;;;;4979417;28;19927;-79
2021/06/21 11:54:48;;;;;;;;;;;16.30;99.90;;;;;;4966331;28;19945;-78
2021/06/21 11:57:15;;;;;;;;;;;16.20;99.90;;;;;;4964527;28;20343;-79
2021/06/21 11:59:43;;;;;;;;;;;16.10;99.90;;;;;;4964786;28;19932;-79
2021/06/21 12:02:14;;;;;;;;;;;16.10;99.90;;;;;;4978640;28;20348;-79
2021/06/21 12:04:42;;;;;;;;;;;16.20;99.90;;;;;;4966482;28;20400;-78
2021/06/21 12:07:09;;;;;;;;;;;16.20;99.90;;;;;;4966895;28;19989;-78
2021/06/21 12:09:50;;;;;;;;;;;16.30;99.90;;;;;;4965270;28;19925;-79
2021/06/21 12:12:24;;;;;;;;;;;16.50;99.90;;;;;;4963732;28;19929;-78
2021/06/21 12:14:51;;;;;;;;;;;16.60;99.90;;;;;;4964909;28;19977;-78
2021/06/21 12:17:22;;;;;;;;;;;16.90;99.90;;;;;;4964455;28;19957;-78
2021/06/21 12:20:19;;;;;;;;;;;17.00;99.90;;;;;;4965730;28;19930;-78
2021/06/21 12:23:13;;;;;;;;;;;17.30;99.90;;;;;;4967711;28;19926;-78
2021/06/21 12:25:44;;;;;;;;;;;17.60;99.90;;;;;;4964968;28;19926;-79
2021/06/21 12:28:14;;;;;;;;;;;17.70;99.90;;;;;;4959887;28;19957;-80
2021/06/21 12:30:52;;;;;;;;;;;17.70;99.90;;;;;;4963458;28;19933;-79
2021/06/21 12:33:37;;;;;;;;;;;17.90;99.90;;;;;;4963256;28;20498;-79
2021/06/21 12:36:08;;;;;;;;;;;17.90;99.90;;;;;;4966629;28;20022;-79
2021/06/21 12:38:37;;;;;;;;;;;17.90;99.90;;;;;;4962077;28;19926;-79
2021/06/21 12:41:32;;;;;;;;;;;17.80;99.90;;;;;;4965385;28;19994;-78
2021/06/21 12:44:02;;;;;;;;;;;17.70;99.90;;;;;;4968375;28;19930;-79
2021/06/21 12:46:30;;;;;;;;;;;17.40;99.90;;;;;;4981204;28;20017;-78
2021/06/21 12:48:59;;;;;;;;;;;17.20;99.90;;;;;;4963243;28;19931;-78
2021/06/21 12:51:25;;;;;;;;;;;17.00;99.90;;;;;;4983184;28;19933;-79
2021/06/21 12:53:53;;;;;;;;;;;16.90;99.90;;;;;;4964756;28;20293;-78
2021/06/21 12:56:22;;;;;;;;;;;16.80;99.90;;;;;;4965806;28;19930;-78
2021/06/21 12:58:49;;;;;;;;;;;16.80;99.90;;;;;;4967949;28;19965;-78
2021/06/21 13:01:23;;;;;;;;;;;17.10;99.90;;;;;;4967135;28;19929;-79
2021/06/21 13:03:51;;;;;;;;;;;17.50;99.90;;;;;;4965556;28;20281;-78
2021/06/21 13:06:36;;;;;;;;;;;18.00;99.90;;;;;;4966886;28;19940;-78
2021/06/21 13:09:10;;;;;;;;;;;18.30;99.90;;;;;;4966730;28;19926;-79
2021/06/21 13:11:56;;;;;;;;;;;18.70;99.90;;;;;;4967722;28;19928;-79
2021/06/21 13:14:36;;;;;;;;;;;19.30;99.90;;;;;;4967294;28;19945;-79
2021/06/21 13:17:13;;;;;;;;;;;19.40;99.90;;;;;;4966397;28;19926;-78
2021/06/21 13:19:58;;;;;;;;;;;19.40;99.90;;;;;;4967161;28;20013;-79
2021/06/21 13:22:26;;;;;;;;;;;19.40;99.90;;;;;;4962535;28;20693;-80
2021/06/21 13:24:53;;;;;;;;;;;19.40;99.90;;;;;;4980687;28;19932;-79
2021/06/21 13:27:22;;;;;;;;;;;19.40;99.90;;;;;;4967948;28;20037;-79
2021/06/21 13:29:49;;;;;;;;;;;19.50;99.90;;;;;;4961098;28;20453;-79
2021/06/21 13:32:29;;;;;;;;;;;19.40;99.90;;;;;;4966311;28;19939;-79
2021/06/21 13:34:58;;;;;;;;;;;19.30;99.90;;;;;;4966071;28;19929;-79
2021/06/21 13:37:26;;;;;;;;;;;19.10;99.90;;;;;;4961811;28;19927;-79
2021/06/21 13:40:00;;;;;;;;;;;18.90;99.90;;;;;;4978332;28;19932;-79
2021/06/21 13:42:40;;;;;;;;;;;18.80;99.90;;;;;;4961756;28;19933;-79
2021/06/21 13:45:13;;;;;;;;;;;18.80;99.90;;;;;;4967073;28;20012;-79
2021/06/21 13:47:44;;;;;;;;;;;18.80;99.90;;;;;;4961952;28;19958;-79
2021/06/21 13:50:14;;;;;;;;;;;18.80;99.90;;;;;;4964181;28;19930;-79
2021/06/21 13:52:42;;;;;;;;;;;18.80;99.90;;;;;;4959001;28;19995;-79
2021/06/21 13:55:10;;;;;;;;;;;18.90;99.90;;;;;;4961801;28;20292;-79
2021/06/21 13:57:38;;;;;;;;;;;19.10;99.90;;;;;;4963174;28;20551;-79
2021/06/21 14:00:08;;;;;;;;;;;19.30;99.90;;;;;;4970359;28;19927;-79
2021/06/21 14:02:36;;;;;;;;;;;19.60;99.90;;;;;;4960271;28;19926;-79
2021/06/21 14:05:04;;;;;;;;;;;20.00;99.90;;;;;;4961963;28;19926;-80
2021/06/21 14:07:31;;;;;;;;;;;20.00;99.90;;;;;;4964954;28;20022;-80
2021/06/21 14:09:58;;;;;;;;;;;20.00;99.90;;;;;;4964014;28;19926;-80
2021/06/21 14:12:25;;;;;;;;;;;20.00;99.90;;;;;;4968772;28;19948;-80
2021/06/21 14:14:52;;;;;;;;;;;19.90;99.90;;;;;;4968459;28;19972;-79
2021/06/21 14:17:22;;;;;;;;;;;19.80;99.90;;;;;;4966496;28;19926;-80
2021/06/21 14:19:49;;;;;;;;;;;19.80;99.90;;;;;;4968382;28;19936;-80
2021/06/21 14:22:16;;;;;;;;;;;19.60;99.90;;;;;;4968388;28;19933;-80
2021/06/21 14:24:44;;;;;;;;;;;19.50;99.90;;;;;;4962566;28;19953;-79
2021/06/21 14:27:12;;;;;;;;;;;19.20;99.90;;;;;;4971849;28;19926;-79
2021/06/21 14:29:39;;;;;;;;;;;18.90;99.90;;;;;;4967844;28;19930;-79